sensor_id;sensor_type;location;lat;lon;timestamp;P1;durP1;ratioP1;P2;durP2;ratioP2
71464;SDS011;59274;49.874;9.154;2022-08-25T00:02:17;10.57;;;4.97;;
71464;SDS011;59274;49.874;9.154;2022-08-25T00:04:43;10.82;;;4.82;;
71464;SDS011;59274;49.874;9.154;2022-08-25T00:07:08;8.20;;;4.53;;
71464;SDS011;59274;49.874;9.154;2022-08-25T00:09:34;8.55;;;4.50;;
71464;SDS011;59274;49.874;9.154;2022-08-25T00:12:00;8.63;;;4.80;;
71464;SDS011;59274;49.874;9.154;2022-08-25T00:14:28;9.23;;;5.15;;
71464;SDS011;59274;49.874;9.154;2022-08-25T00:16:56;9.10;;;5.07;;
71464;SDS011;59274;49.874;9.154;2022-08-25T00:19:23;8.43;;;4.93;;
71464;SDS011;59274;49.874;9.154;2022-08-25T00:21:50;11.23;;;5.15;;
71464;SDS011;59274;49.874;9.154;2022-08-25T00:24:16;8.40;;;4.33;;
71464;SDS011;59274;49.874;9.154;2022-08-25T00:26:48;8.25;;;4.60;;
71464;SDS011;59274;49.874;9.154;2022-08-25T00:29:15;9.57;;;4.20;;
71464;SDS011;59274;49.874;9.154;2022-08-25T00:31:41;9.75;;;4.90;;
71464;SDS011;59274;49.874;9.154;2022-08-25T00:34:08;9.10;;;4.50;;
71464;SDS011;59274;49.874;9.154;2022-08-25T00:36:40;7.50;;;4.43;;
71464;SDS011;59274;49.874;9.154;2022-08-25T00:39:06;8.07;;;4.15;;
71464;SDS011;59274;49.874;9.154;2022-08-25T00:41:33;10.35;;;4.50;;
71464;SDS011;59274;49.874;9.154;2022-08-25T00:44:00;9.40;;;4.35;;
71464;SDS011;59274;49.874;9.154;2022-08-25T00:46:30;8.77;;;4.78;;
71464;SDS011;59274;49.874;9.154;2022-08-25T00:48:59;9.40;;;4.97;;
71464;SDS011;59274;49.874;9.154;2022-08-25T00:51:38;9.57;;;4.47;;
71464;SDS011;59274;49.874;9.154;2022-08-25T00:54:09;10.95;;;4.70;;
71464;SDS011;59274;49.874;9.154;2022-08-25T00:56:39;9.45;;;5.10;;
71464;SDS011;59274;49.874;9.154;2022-08-25T00:59:05;8.57;;;4.80;;
71464;SDS011;59274;49.874;9.154;2022-08-25T01:01:32;11.03;;;5.03;;
71464;SDS011;59274;49.874;9.154;2022-08-25T01:03:58;10.73;;;5.13;;
71464;SDS011;59274;49.874;9.154;2022-08-25T01:06:23;11.20;;;6.13;;
71464;SDS011;59274;49.874;9.154;2022-08-25T01:08:50;10.03;;;5.00;;
71464;SDS011;59274;49.874;9.154;2022-08-25T01:11:16;9.40;;;5.10;;
71464;SDS011;59274;49.874;9.154;2022-08-25T01:13:43;10.02;;;5.50;;
71464;SDS011;59274;49.874;9.154;2022-08-25T01:16:12;9.20;;;4.90;;
71464;SDS011;59274;49.874;9.154;2022-08-25T01:21:12;10.33;;;4.47;;
71464;SDS011;59274;49.874;9.154;2022-08-25T01:23:38;8.68;;;5.07;;
71464;SDS011;59274;49.874;9.154;2022-08-25T01:26:17;9.05;;;4.70;;
71464;SDS011;59274;49.874;9.154;2022-08-25T01:28:46;9.65;;;4.82;;
71464;SDS011;59274;49.874;9.154;2022-08-25T01:31:32;12.07;;;5.00;;
71464;SDS011;59274;49.874;9.154;2022-08-25T01:33:59;9.07;;;4.77;;
71464;SDS011;59274;49.874;9.154;2022-08-25T01:36:25;9.20;;;4.75;;
71464;SDS011;59274;49.874;9.154;2022-08-25T01:38:53;8.52;;;5.05;;
71464;SDS011;59274;49.874;9.154;2022-08-25T01:43:53;9.93;;;5.20;;
71464;SDS011;59274;49.874;9.154;2022-08-25T01:46:19;9.35;;;5.60;;
71464;SDS011;59274;49.874;9.154;2022-08-25T01:48:45;11.25;;;5.30;;
71464;SDS011;59274;49.874;9.154;2022-08-25T01:51:13;9.13;;;5.07;;
71464;SDS011;59274;49.874;9.154;2022-08-25T01:53:39;8.90;;;5.15;;
71464;SDS011;59274;49.874;9.154;2022-08-25T01:56:14;9.33;;;4.73;;
71464;SDS011;59274;49.874;9.154;2022-08-25T01:58:41;9.68;;;5.53;;
71464;SDS011;59274;49.874;9.154;2022-08-25T02:01:12;9.35;;;5.20;;
71464;SDS011;59274;49.874;9.154;2022-08-25T02:03:42;9.87;;;4.83;;
71464;SDS011;59274;49.874;9.154;2022-08-25T02:06:11;8.98;;;5.07;;
71464;SDS011;59274;49.874;9.154;2022-08-25T02:08:37;10.32;;;5.47;;
71464;SDS011;59274;49.874;9.154;2022-08-25T02:11:03;9.30;;;5.15;;
71464;SDS011;59274;49.874;9.154;2022-08-25T02:13:29;10.40;;;5.40;;
71464;SDS011;59274;49.874;9.154;2022-08-25T02:15:55;9.32;;;5.03;;
71464;SDS011;59274;49.874;9.154;2022-08-25T02:18:22;11.10;;;5.63;;
71464;SDS011;59274;49.874;9.154;2022-08-25T02:20:48;9.48;;;5.45;;
71464;SDS011;59274;49.874;9.154;2022-08-25T02:23:14;11.02;;;5.75;;
71464;SDS011;59274;49.874;9.154;2022-08-25T02:25:40;9.90;;;5.13;;
71464;SDS011;59274;49.874;9.154;2022-08-25T02:28:07;11.05;;;6.25;;
71464;SDS011;59274;49.874;9.154;2022-08-25T02:30:34;13.20;;;5.47;;
71464;SDS011;59274;49.874;9.154;2022-08-25T02:33:01;11.00;;;6.00;;
71464;SDS011;59274;49.874;9.154;2022-08-25T02:35:30;12.37;;;5.93;;
71464;SDS011;59274;49.874;9.154;2022-08-25T02:37:56;10.57;;;5.57;;
71464;SDS011;59274;49.874;9.154;2022-08-25T02:40:21;12.30;;;5.97;;
71464;SDS011;59274;49.874;9.154;2022-08-25T02:42:48;10.07;;;5.90;;
71464;SDS011;59274;49.874;9.154;2022-08-25T02:45:14;11.20;;;5.28;;
71464;SDS011;59274;49.874;9.154;2022-08-25T02:47:43;9.17;;;5.33;;
71464;SDS011;59274;49.874;9.154;2022-08-25T02:50:09;10.57;;;5.60;;
71464;SDS011;59274;49.874;9.154;2022-08-25T02:52:36;11.18;;;5.57;;
71464;SDS011;59274;49.874;9.154;2022-08-25T02:55:03;11.20;;;5.60;;
71464;SDS011;59274;49.874;9.154;2022-08-25T02:57:31;10.88;;;5.95;;
71464;SDS011;59274;49.874;9.154;2022-08-25T02:59:57;9.77;;;5.40;;
71464;SDS011;59274;49.874;9.154;2022-08-25T03:02:23;10.40;;;5.90;;
71464;SDS011;59274;49.874;9.154;2022-08-25T03:04:49;11.27;;;6.03;;
71464;SDS011;59274;49.874;9.154;2022-08-25T03:07:16;10.33;;;5.37;;
71464;SDS011;59274;49.874;9.154;2022-08-25T03:09:43;10.95;;;6.15;;
71464;SDS011;59274;49.874;9.154;2022-08-25T03:12:09;10.27;;;5.43;;
71464;SDS011;59274;49.874;9.154;2022-08-25T03:14:35;12.50;;;5.95;;
71464;SDS011;59274;49.874;9.154;2022-08-25T03:17:01;13.70;;;6.60;;
71464;SDS011;59274;49.874;9.154;2022-08-25T03:19:27;11.40;;;6.60;;
71464;SDS011;59274;49.874;9.154;2022-08-25T03:21:53;11.13;;;6.33;;
71464;SDS011;59274;49.874;9.154;2022-08-25T03:24:21;10.90;;;6.25;;
71464;SDS011;59274;49.874;9.154;2022-08-25T03:26:50;10.93;;;6.03;;
71464;SDS011;59274;49.874;9.154;2022-08-25T03:29:24;11.10;;;6.10;;
71464;SDS011;59274;49.874;9.154;2022-08-25T03:31:52;11.70;;;6.80;;
71464;SDS011;59274;49.874;9.154;2022-08-25T03:34:19;10.27;;;6.03;;
71464;SDS011;59274;49.874;9.154;2022-08-25T03:36:47;10.50;;;6.43;;
71464;SDS011;59274;49.874;9.154;2022-08-25T03:39:14;11.57;;;6.80;;
71464;SDS011;59274;49.874;9.154;2022-08-25T03:41:41;11.60;;;6.38;;
71464;SDS011;59274;49.874;9.154;2022-08-25T03:44:07;11.30;;;6.37;;
71464;SDS011;59274;49.874;9.154;2022-08-25T03:46:36;11.13;;;6.28;;
71464;SDS011;59274;49.874;9.154;2022-08-25T03:49:08;10.57;;;5.70;;
71464;SDS011;59274;49.874;9.154;2022-08-25T03:51:36;10.82;;;5.88;;
71464;SDS011;59274;49.874;9.154;2022-08-25T03:54:05;12.15;;;6.75;;
71464;SDS011;59274;49.874;9.154;2022-08-25T03:56:31;13.00;;;7.22;;
71464;SDS011;59274;49.874;9.154;2022-08-25T03:58:57;10.63;;;5.77;;
71464;SDS011;59274;49.874;9.154;2022-08-25T04:01:23;10.80;;;5.47;;
71464;SDS011;59274;49.874;9.154;2022-08-25T04:03:48;10.67;;;6.20;;
71464;SDS011;59274;49.874;9.154;2022-08-25T04:06:15;11.23;;;6.28;;
71464;SDS011;59274;49.874;9.154;2022-08-25T04:08:41;13.13;;;7.05;;
71464;SDS011;59274;49.874;9.154;2022-08-25T04:11:08;14.10;;;6.43;;
71464;SDS011;59274;49.874;9.154;2022-08-25T04:13:38;12.38;;;7.00;;
71464;SDS011;59274;49.874;9.154;2022-08-25T04:16:09;15.02;;;7.40;;
71464;SDS011;59274;49.874;9.154;2022-08-25T04:18:39;11.73;;;6.93;;
71464;SDS011;59274;49.874;9.154;2022-08-25T04:21:06;12.48;;;7.13;;
71464;SDS011;59274;49.874;9.154;2022-08-25T04:23:34;12.80;;;7.10;;
71464;SDS011;59274;49.874;9.154;2022-08-25T04:26:00;12.43;;;6.78;;
71464;SDS011;59274;49.874;9.154;2022-08-25T04:28:26;12.60;;;7.00;;
71464;SDS011;59274;49.874;9.154;2022-08-25T04:30:52;11.90;;;6.90;;
71464;SDS011;59274;49.874;9.154;2022-08-25T04:33:18;15.03;;;6.70;;
71464;SDS011;59274;49.874;9.154;2022-08-25T04:35:47;12.88;;;8.15;;
71464;SDS011;59274;49.874;9.154;2022-08-25T04:38:14;13.77;;;7.80;;
71464;SDS011;59274;49.874;9.154;2022-08-25T04:40:39;12.20;;;7.20;;
71464;SDS011;59274;49.874;9.154;2022-08-25T04:43:05;12.13;;;6.37;;
71464;SDS011;59274;49.874;9.154;2022-08-25T04:45:30;11.33;;;6.80;;
71464;SDS011;59274;49.874;9.154;2022-08-25T04:47:55;12.23;;;6.80;;
71464;SDS011;59274;49.874;9.154;2022-08-25T04:50:24;11.93;;;6.70;;
71464;SDS011;59274;49.874;9.154;2022-08-25T04:52:50;15.93;;;6.78;;
71464;SDS011;59274;49.874;9.154;2022-08-25T04:55:15;10.83;;;5.63;;
71464;SDS011;59274;49.874;9.154;2022-08-25T04:57:42;11.00;;;5.60;;
71464;SDS011;59274;49.874;9.154;2022-08-25T05:00:08;11.23;;;5.77;;
71464;SDS011;59274;49.874;9.154;2022-08-25T05:02:34;10.20;;;5.82;;
71464;SDS011;59274;49.874;9.154;2022-08-25T05:05:00;14.00;;;6.22;;
71464;SDS011;59274;49.874;9.154;2022-08-25T05:07:27;12.20;;;6.30;;
71464;SDS011;59274;49.874;9.154;2022-08-25T05:09:52;14.88;;;6.70;;
71464;SDS011;59274;49.874;9.154;2022-08-25T05:12:18;12.47;;;6.40;;
71464;SDS011;59274;49.874;9.154;2022-08-25T05:14:44;12.35;;;7.05;;
71464;SDS011;59274;49.874;9.154;2022-08-25T05:17:09;11.80;;;6.13;;
71464;SDS011;59274;49.874;9.154;2022-08-25T05:19:35;11.70;;;6.47;;
71464;SDS011;59274;49.874;9.154;2022-08-25T05:22:00;14.37;;;5.77;;
71464;SDS011;59274;49.874;9.154;2022-08-25T05:24:26;10.85;;;6.05;;
71464;SDS011;59274;49.874;9.154;2022-08-25T05:26:52;11.83;;;6.93;;
71464;SDS011;59274;49.874;9.154;2022-08-25T05:29:18;12.25;;;7.28;;
71464;SDS011;59274;49.874;9.154;2022-08-25T05:31:43;11.57;;;6.73;;
71464;SDS011;59274;49.874;9.154;2022-08-25T05:34:09;17.23;;;7.85;;
71464;SDS011;59274;49.874;9.154;2022-08-25T05:36:36;12.93;;;7.07;;
71464;SDS011;59274;49.874;9.154;2022-08-25T05:39:07;11.53;;;6.53;;
71464;SDS011;59274;49.874;9.154;2022-08-25T05:41:33;13.13;;;6.72;;
71464;SDS011;59274;49.874;9.154;2022-08-25T05:43:58;12.23;;;7.13;;
71464;SDS011;59274;49.874;9.154;2022-08-25T05:46:24;11.93;;;6.85;;
71464;SDS011;59274;49.874;9.154;2022-08-25T05:48:50;14.47;;;6.83;;
71464;SDS011;59274;49.874;9.154;2022-08-25T05:51:16;14.15;;;7.13;;
71464;SDS011;59274;49.874;9.154;2022-08-25T05:53:43;14.63;;;7.10;;
71464;SDS011;59274;49.874;9.154;2022-08-25T05:56:10;12.67;;;7.00;;
71464;SDS011;59274;49.874;9.154;2022-08-25T05:58:35;14.82;;;7.75;;
71464;SDS011;59274;49.874;9.154;2022-08-25T06:01:02;12.32;;;7.22;;
71464;SDS011;59274;49.874;9.154;2022-08-25T06:03:47;14.20;;;7.20;;
71464;SDS011;59274;49.874;9.154;2022-08-25T06:06:15;13.18;;;7.53;;
71464;SDS011;59274;49.874;9.154;2022-08-25T06:08:41;12.23;;;7.43;;
71464;SDS011;59274;49.874;9.154;2022-08-25T06:11:08;14.63;;;7.82;;
71464;SDS011;59274;49.874;9.154;2022-08-25T06:13:34;13.85;;;7.18;;
71464;SDS011;59274;49.874;9.154;2022-08-25T06:16:00;15.70;;;8.20;;
71464;SDS011;59274;49.874;9.154;2022-08-25T06:18:26;16.35;;;8.48;;
71464;SDS011;59274;49.874;9.154;2022-08-25T06:20:52;16.83;;;8.00;;
71464;SDS011;59274;49.874;9.154;2022-08-25T06:23:17;16.90;;;8.45;;
71464;SDS011;59274;49.874;9.154;2022-08-25T06:25:52;15.13;;;8.70;;
71464;SDS011;59274;49.874;9.154;2022-08-25T06:28:18;15.40;;;8.10;;
71464;SDS011;59274;49.874;9.154;2022-08-25T06:30:44;16.50;;;8.40;;
71464;SDS011;59274;49.874;9.154;2022-08-25T06:33:11;14.60;;;8.23;;
71464;SDS011;59274;49.874;9.154;2022-08-25T06:35:39;16.23;;;8.67;;
71464;SDS011;59274;49.874;9.154;2022-08-25T06:38:06;13.60;;;8.63;;
71464;SDS011;59274;49.874;9.154;2022-08-25T06:40:32;13.63;;;8.18;;
71464;SDS011;59274;49.874;9.154;2022-08-25T06:42:58;13.53;;;7.43;;
71464;SDS011;59274;49.874;9.154;2022-08-25T06:45:23;13.80;;;7.60;;
71464;SDS011;59274;49.874;9.154;2022-08-25T06:47:49;15.05;;;7.88;;
71464;SDS011;59274;49.874;9.154;2022-08-25T06:50:16;14.77;;;8.35;;
71464;SDS011;59274;49.874;9.154;2022-08-25T06:52:42;15.20;;;8.17;;
71464;SDS011;59274;49.874;9.154;2022-08-25T06:55:08;14.88;;;8.15;;
71464;SDS011;59274;49.874;9.154;2022-08-25T06:57:34;13.53;;;8.23;;
71464;SDS011;59274;49.874;9.154;2022-08-25T07:00:00;14.00;;;8.00;;
71464;SDS011;59274;49.874;9.154;2022-08-25T07:02:29;13.93;;;8.00;;
71464;SDS011;59274;49.874;9.154;2022-08-25T07:04:56;14.70;;;7.70;;
71464;SDS011;59274;49.874;9.154;2022-08-25T07:07:21;18.08;;;9.00;;
71464;SDS011;59274;49.874;9.154;2022-08-25T07:09:47;14.23;;;8.50;;
71464;SDS011;59274;49.874;9.154;2022-08-25T07:12:12;15.32;;;9.15;;
71464;SDS011;59274;49.874;9.154;2022-08-25T07:14:38;16.92;;;10.13;;
71464;SDS011;59274;49.874;9.154;2022-08-25T07:17:04;15.13;;;10.10;;
71464;SDS011;59274;49.874;9.154;2022-08-25T07:19:29;16.58;;;9.30;;
71464;SDS011;59274;49.874;9.154;2022-08-25T07:21:55;17.27;;;9.30;;
71464;SDS011;59274;49.874;9.154;2022-08-25T07:24:21;15.90;;;8.13;;
71464;SDS011;59274;49.874;9.154;2022-08-25T07:26:47;13.53;;;7.83;;
71464;SDS011;59274;49.874;9.154;2022-08-25T07:29:15;14.77;;;8.48;;
71464;SDS011;59274;49.874;9.154;2022-08-25T07:31:43;12.75;;;7.03;;
71464;SDS011;59274;49.874;9.154;2022-08-25T07:34:09;11.25;;;7.05;;
71464;SDS011;59274;49.874;9.154;2022-08-25T07:36:53;13.87;;;7.07;;
71464;SDS011;59274;49.874;9.154;2022-08-25T07:39:19;12.20;;;6.53;;
71464;SDS011;59274;49.874;9.154;2022-08-25T07:41:45;12.95;;;6.90;;
71464;SDS011;59274;49.874;9.154;2022-08-25T07:44:12;12.90;;;7.07;;
71464;SDS011;59274;49.874;9.154;2022-08-25T07:46:38;10.85;;;6.97;;
71464;SDS011;59274;49.874;9.154;2022-08-25T07:49:04;14.23;;;7.13;;
71464;SDS011;59274;49.874;9.154;2022-08-25T07:51:30;11.63;;;7.68;;
71464;SDS011;59274;49.874;9.154;2022-08-25T07:53:56;13.53;;;7.17;;
71464;SDS011;59274;49.874;9.154;2022-08-25T07:56:21;13.20;;;7.00;;
71464;SDS011;59274;49.874;9.154;2022-08-25T07:58:47;11.15;;;7.10;;
71464;SDS011;59274;49.874;9.154;2022-08-25T08:01:13;13.33;;;7.80;;
71464;SDS011;59274;49.874;9.154;2022-08-25T08:03:43;12.23;;;7.20;;
71464;SDS011;59274;49.874;9.154;2022-08-25T08:06:10;13.45;;;7.45;;
71464;SDS011;59274;49.874;9.154;2022-08-25T08:08:39;13.47;;;6.97;;
71464;SDS011;59274;49.874;9.154;2022-08-25T08:11:13;12.90;;;6.93;;
71464;SDS011;59274;49.874;9.154;2022-08-25T08:13:41;13.57;;;7.47;;
71464;SDS011;59274;49.874;9.154;2022-08-25T08:16:10;13.18;;;7.22;;
71464;SDS011;59274;49.874;9.154;2022-08-25T08:18:42;13.18;;;7.68;;
71464;SDS011;59274;49.874;9.154;2022-08-25T08:21:12;11.70;;;7.03;;
71464;SDS011;59274;49.874;9.154;2022-08-25T08:23:42;11.13;;;7.20;;
71464;SDS011;59274;49.874;9.154;2022-08-25T08:26:08;11.27;;;7.35;;
71464;SDS011;59274;49.874;9.154;2022-08-25T08:28:34;11.05;;;7.10;;
71464;SDS011;59274;49.874;9.154;2022-08-25T08:30:59;12.50;;;7.13;;
71464;SDS011;59274;49.874;9.154;2022-08-25T08:33:25;12.50;;;7.30;;
71464;SDS011;59274;49.874;9.154;2022-08-25T08:35:54;12.43;;;6.93;;
71464;SDS011;59274;49.874;9.154;2022-08-25T08:38:21;11.57;;;6.73;;
71464;SDS011;59274;49.874;9.154;2022-08-25T08:40:51;11.60;;;7.07;;
71464;SDS011;59274;49.874;9.154;2022-08-25T08:43:40;11.30;;;6.88;;
71464;SDS011;59274;49.874;9.154;2022-08-25T08:46:08;13.13;;;7.17;;
71464;SDS011;59274;49.874;9.154;2022-08-25T08:51:22;12.55;;;7.50;;
71464;SDS011;59274;49.874;9.154;2022-08-25T08:53:56;9.98;;;6.20;;
71464;SDS011;59274;49.874;9.154;2022-08-25T08:56:46;9.50;;;5.00;;
71464;SDS011;59274;49.874;9.154;2022-08-25T08:59:16;7.80;;;4.57;;
71464;SDS011;59274;49.874;9.154;2022-08-25T09:01:54;9.05;;;5.07;;
71464;SDS011;59274;49.874;9.154;2022-08-25T09:04:34;8.38;;;4.90;;
71464;SDS011;59274;49.874;9.154;2022-08-25T09:07:02;8.38;;;4.57;;
71464;SDS011;59274;49.874;9.154;2022-08-25T09:09:33;8.02;;;4.68;;
71464;SDS011;59274;49.874;9.154;2022-08-25T09:12:03;7.80;;;4.50;;
71464;SDS011;59274;49.874;9.154;2022-08-25T09:23:11;8.77;;;4.25;;
71464;SDS011;59274;49.874;9.154;2022-08-25T09:28:50;9.38;;;5.20;;
71464;SDS011;59274;49.874;9.154;2022-08-25T09:31:26;9.75;;;4.95;;
71464;SDS011;59274;49.874;9.154;2022-08-25T09:34:00;8.07;;;4.55;;
71464;SDS011;59274;49.874;9.154;2022-08-25T09:36:27;11.90;;;4.68;;
71464;SDS011;59274;49.874;9.154;2022-08-25T09:38:52;8.70;;;4.90;;
71464;SDS011;59274;49.874;9.154;2022-08-25T09:41:33;8.77;;;4.63;;
71464;SDS011;59274;49.874;9.154;2022-08-25T09:44:26;9.60;;;4.90;;
71464;SDS011;59274;49.874;9.154;2022-08-25T09:46:57;9.50;;;4.72;;
71464;SDS011;59274;49.874;9.154;2022-08-25T09:59:56;7.05;;;4.30;;
71464;SDS011;59274;49.874;9.154;2022-08-25T10:02:23;10.57;;;4.45;;
71464;SDS011;59274;49.874;9.154;2022-08-25T10:04:52;7.38;;;4.30;;
71464;SDS011;59274;49.874;9.154;2022-08-25T10:07:25;8.73;;;4.32;;
71464;SDS011;59274;49.874;9.154;2022-08-25T10:09:52;8.05;;;4.30;;
71464;SDS011;59274;49.874;9.154;2022-08-25T10:15:26;7.80;;;4.10;;
71464;SDS011;59274;49.874;9.154;2022-08-25T10:17:52;8.95;;;4.18;;
71464;SDS011;59274;49.874;9.154;2022-08-25T10:22:46;7.57;;;4.15;;
71464;SDS011;59274;49.874;9.154;2022-08-25T10:25:14;11.15;;;4.55;;
71464;SDS011;59274;49.874;9.154;2022-08-25T10:27:48;9.32;;;4.40;;
71464;SDS011;59274;49.874;9.154;2022-08-25T10:33:41;7.55;;;4.38;;
71464;SDS011;59274;49.874;9.154;2022-08-25T10:36:13;9.90;;;4.40;;
71464;SDS011;59274;49.874;9.154;2022-08-25T10:41:12;6.40;;;4.18;;
71464;SDS011;59274;49.874;9.154;2022-08-25T10:43:43;7.82;;;4.70;;
71464;SDS011;59274;49.874;9.154;2022-08-25T10:49:07;8.52;;;4.57;;
71464;SDS011;59274;49.874;9.154;2022-08-25T10:59:51;7.97;;;4.57;;
71464;SDS011;59274;49.874;9.154;2022-08-25T11:05:30;8.00;;;4.70;;
71464;SDS011;59274;49.874;9.154;2022-08-25T11:08:20;8.57;;;4.93;;
71464;SDS011;59274;49.874;9.154;2022-08-25T11:16:37;9.82;;;5.18;;
71464;SDS011;59274;49.874;9.154;2022-08-25T11:19:08;7.27;;;4.63;;
71464;SDS011;59274;49.874;9.154;2022-08-25T11:30:11;8.63;;;4.40;;
71464;SDS011;59274;49.874;9.154;2022-08-25T11:32:38;7.60;;;4.73;;
71464;SDS011;59274;49.874;9.154;2022-08-25T11:35:09;8.07;;;4.45;;
71464;SDS011;59274;49.874;9.154;2022-08-25T11:37:39;8.32;;;4.80;;
71464;SDS011;59274;49.874;9.154;2022-08-25T11:43:46;9.90;;;4.15;;
71464;SDS011;59274;49.874;9.154;2022-08-25T11:57:06;9.80;;;4.53;;
71464;SDS011;59274;49.874;9.154;2022-08-25T12:05:06;7.35;;;4.30;;
71464;SDS011;59274;49.874;9.154;2022-08-25T12:10:18;8.18;;;4.15;;
71464;SDS011;59274;49.874;9.154;2022-08-25T12:13:03;10.03;;;4.07;;
71464;SDS011;59274;49.874;9.154;2022-08-25T12:18:14;7.10;;;4.00;;
71464;SDS011;59274;49.874;9.154;2022-08-25T12:24:03;9.37;;;4.43;;
71464;SDS011;59274;49.874;9.154;2022-08-25T12:26:54;7.75;;;4.78;;
71464;SDS011;59274;49.874;9.154;2022-08-25T12:29:31;7.07;;;4.32;;
71464;SDS011;59274;49.874;9.154;2022-08-25T12:37:16;7.43;;;4.38;;
71464;SDS011;59274;49.874;9.154;2022-08-25T12:44:47;8.10;;;4.00;;
71464;SDS011;59274;49.874;9.154;2022-08-25T12:47:31;6.07;;;3.47;;
71464;SDS011;59274;49.874;9.154;2022-08-25T12:52:53;9.20;;;4.25;;
71464;SDS011;59274;49.874;9.154;2022-08-25T12:55:22;6.57;;;3.97;;
71464;SDS011;59274;49.874;9.154;2022-08-25T12:57:51;7.93;;;4.20;;
71464;SDS011;59274;49.874;9.154;2022-08-25T13:00:24;6.82;;;4.18;;
71464;SDS011;59274;49.874;9.154;2022-08-25T13:11:45;7.30;;;3.73;;
71464;SDS011;59274;49.874;9.154;2022-08-25T13:14:18;7.00;;;4.00;;
71464;SDS011;59274;49.874;9.154;2022-08-25T13:16:53;6.65;;;3.75;;
71464;SDS011;59274;49.874;9.154;2022-08-25T13:19:21;6.95;;;4.35;;
71464;SDS011;59274;49.874;9.154;2022-08-25T13:21:49;8.02;;;3.97;;
71464;SDS011;59274;49.874;9.154;2022-08-25T13:24:34;6.93;;;4.07;;
71464;SDS011;59274;49.874;9.154;2022-08-25T13:27:05;6.22;;;3.58;;
71464;SDS011;59274;49.874;9.154;2022-08-25T13:29:34;7.07;;;4.20;;
71464;SDS011;59274;49.874;9.154;2022-08-25T13:32:12;7.85;;;4.00;;
71464;SDS011;59274;49.874;9.154;2022-08-25T13:34:41;8.40;;;4.18;;
71464;SDS011;59274;49.874;9.154;2022-08-25T13:37:09;7.27;;;4.00;;
71464;SDS011;59274;49.874;9.154;2022-08-25T13:42:34;7.15;;;4.15;;
71464;SDS011;59274;49.874;9.154;2022-08-25T13:45:01;8.07;;;3.78;;
71464;SDS011;59274;49.874;9.154;2022-08-25T13:47:39;9.57;;;4.20;;
71464;SDS011;59274;49.874;9.154;2022-08-25T13:53:09;8.27;;;3.80;;
71464;SDS011;59274;49.874;9.154;2022-08-25T13:55:37;6.60;;;3.75;;
71464;SDS011;59274;49.874;9.154;2022-08-25T13:58:12;9.70;;;4.00;;
71464;SDS011;59274;49.874;9.154;2022-08-25T14:00:44;8.40;;;3.90;;
71464;SDS011;59274;49.874;9.154;2022-08-25T14:03:33;7.00;;;4.10;;
71464;SDS011;59274;49.874;9.154;2022-08-25T14:08:39;6.72;;;3.90;;
71464;SDS011;59274;49.874;9.154;2022-08-25T14:14:05;6.93;;;3.72;;
71464;SDS011;59274;49.874;9.154;2022-08-25T14:16:36;6.23;;;3.20;;
71464;SDS011;59274;49.874;9.154;2022-08-25T14:19:04;7.55;;;3.58;;
71464;SDS011;59274;49.874;9.154;2022-08-25T14:21:36;6.13;;;3.90;;
71464;SDS011;59274;49.874;9.154;2022-08-25T14:24:01;6.60;;;3.70;;
71464;SDS011;59274;49.874;9.154;2022-08-25T14:26:27;6.28;;;3.55;;
71464;SDS011;59274;49.874;9.154;2022-08-25T14:28:53;6.60;;;3.70;;
71464;SDS011;59274;49.874;9.154;2022-08-25T14:34:05;5.95;;;3.83;;
71464;SDS011;59274;49.874;9.154;2022-08-25T14:36:37;7.60;;;4.10;;
71464;SDS011;59274;49.874;9.154;2022-08-25T14:39:03;7.07;;;3.83;;
71464;SDS011;59274;49.874;9.154;2022-08-25T14:41:31;6.90;;;4.00;;
71464;SDS011;59274;49.874;9.154;2022-08-25T14:43:58;5.65;;;3.47;;
71464;SDS011;59274;49.874;9.154;2022-08-25T14:46:26;7.05;;;3.85;;
71464;SDS011;59274;49.874;9.154;2022-08-25T14:48:54;5.83;;;3.30;;
71464;SDS011;59274;49.874;9.154;2022-08-25T14:51:22;7.35;;;3.88;;
71464;SDS011;59274;49.874;9.154;2022-08-25T14:53:49;5.85;;;3.75;;
71464;SDS011;59274;49.874;9.154;2022-08-25T14:56:18;6.45;;;3.95;;
71464;SDS011;59274;49.874;9.154;2022-08-25T14:58:43;6.27;;;4.03;;
71464;SDS011;59274;49.874;9.154;2022-08-25T15:01:12;5.60;;;3.37;;
71464;SDS011;59274;49.874;9.154;2022-08-25T15:03:42;6.80;;;3.70;;
71464;SDS011;59274;49.874;9.154;2022-08-25T15:06:11;6.13;;;3.60;;
71464;SDS011;59274;49.874;9.154;2022-08-25T15:08:38;5.65;;;3.63;;
71464;SDS011;59274;49.874;9.154;2022-08-25T15:11:23;6.40;;;3.78;;
71464;SDS011;59274;49.874;9.154;2022-08-25T15:13:48;6.20;;;3.70;;
71464;SDS011;59274;49.874;9.154;2022-08-25T15:16:15;7.13;;;3.80;;
71464;SDS011;59274;49.874;9.154;2022-08-25T15:18:46;7.57;;;4.13;;
71464;SDS011;59274;49.874;9.154;2022-08-25T15:21:11;6.90;;;3.80;;
71464;SDS011;59274;49.874;9.154;2022-08-25T15:23:36;6.83;;;3.87;;
71464;SDS011;59274;49.874;9.154;2022-08-25T15:26:02;6.47;;;4.20;;
71464;SDS011;59274;49.874;9.154;2022-08-25T15:28:28;7.20;;;3.70;;
71464;SDS011;59274;49.874;9.154;2022-08-25T15:30:53;6.27;;;3.97;;
71464;SDS011;59274;49.874;9.154;2022-08-25T15:33:22;7.57;;;4.17;;
71464;SDS011;59274;49.874;9.154;2022-08-25T15:35:47;6.35;;;4.00;;
71464;SDS011;59274;49.874;9.154;2022-08-25T15:38:13;6.00;;;3.87;;
71464;SDS011;59274;49.874;9.154;2022-08-25T15:40:41;6.38;;;4.00;;
71464;SDS011;59274;49.874;9.154;2022-08-25T15:43:07;6.83;;;4.00;;
71464;SDS011;59274;49.874;9.154;2022-08-25T15:45:33;6.50;;;4.07;;
71464;SDS011;59274;49.874;9.154;2022-08-25T15:47:59;7.25;;;3.85;;
71464;SDS011;59274;49.874;9.154;2022-08-25T15:50:25;6.50;;;3.90;;
71464;SDS011;59274;49.874;9.154;2022-08-25T15:52:50;6.13;;;3.97;;
71464;SDS011;59274;49.874;9.154;2022-08-25T15:55:16;7.60;;;4.10;;
71464;SDS011;59274;49.874;9.154;2022-08-25T15:57:42;5.93;;;3.80;;
71464;SDS011;59274;49.874;9.154;2022-08-25T16:00:08;6.13;;;3.88;;
71464;SDS011;59274;49.874;9.154;2022-08-25T16:02:37;7.23;;;4.03;;
71464;SDS011;59274;49.874;9.154;2022-08-25T16:05:07;8.02;;;3.95;;
71464;SDS011;59274;49.874;9.154;2022-08-25T16:07:34;8.60;;;4.20;;
71464;SDS011;59274;49.874;9.154;2022-08-25T16:10:00;7.50;;;4.00;;
71464;SDS011;59274;49.874;9.154;2022-08-25T16:12:25;7.10;;;4.47;;
71464;SDS011;59274;49.874;9.154;2022-08-25T16:14:52;5.70;;;3.63;;
71464;SDS011;59274;49.874;9.154;2022-08-25T16:17:18;9.02;;;3.88;;
71464;SDS011;59274;49.874;9.154;2022-08-25T16:19:44;10.85;;;4.60;;
71464;SDS011;59274;49.874;9.154;2022-08-25T16:22:10;6.67;;;4.33;;
71464;SDS011;59274;49.874;9.154;2022-08-25T16:24:40;8.15;;;4.57;;
71464;SDS011;59274;49.874;9.154;2022-08-25T16:27:09;7.22;;;3.90;;
71464;SDS011;59274;49.874;9.154;2022-08-25T16:29:36;6.88;;;4.28;;
71464;SDS011;59274;49.874;9.154;2022-08-25T16:32:03;6.67;;;3.90;;
71464;SDS011;59274;49.874;9.154;2022-08-25T16:34:30;8.85;;;4.07;;
71464;SDS011;59274;49.874;9.154;2022-08-25T16:36:56;7.85;;;4.13;;
71464;SDS011;59274;49.874;9.154;2022-08-25T16:39:22;7.70;;;4.10;;
71464;SDS011;59274;49.874;9.154;2022-08-25T16:41:49;9.40;;;4.35;;
71464;SDS011;59274;49.874;9.154;2022-08-25T16:44:16;6.70;;;3.97;;
71464;SDS011;59274;49.874;9.154;2022-08-25T16:46:42;6.20;;;4.07;;
71464;SDS011;59274;49.874;9.154;2022-08-25T16:49:08;7.82;;;4.10;;
71464;SDS011;59274;49.874;9.154;2022-08-25T16:51:35;7.38;;;4.07;;
71464;SDS011;59274;49.874;9.154;2022-08-25T16:54:02;7.07;;;4.40;;
71464;SDS011;59274;49.874;9.154;2022-08-25T16:56:47;7.18;;;4.40;;
71464;SDS011;59274;49.874;9.154;2022-08-25T16:59:12;6.50;;;4.30;;
71464;SDS011;59274;49.874;9.154;2022-08-25T17:01:38;10.48;;;4.28;;
71464;SDS011;59274;49.874;9.154;2022-08-25T17:04:06;6.95;;;3.75;;